Time;durP1;ratioP1;P1;durP2;ratioP2;P2;SDS_P1;SDS_P2;PMS_P1;PMS_P2;Temp;Humidity;BMP_temperature;BMP_pressure;BME280_temperature;BME280_humidity;BME280_pressure;Samples;Min_cycle;Max_cycle;Signal;HPM_P1;HPM_P2
2022/08/27 00:00:29;;;;;;;3.00;0.22;;;;;;;19.55;100.00;100207.44;7391343;19;20091;-56
2022/08/27 00:02:56;;;;;;;2.28;0.60;;;;;;;19.56;100.00;100209.72;7391107;19;20022;-56
2022/08/27 00:05:22;;;;;;;4.18;0.45;;;;;;;19.68;100.00;100207.56;7392083;19;20037;-57
2022/08/27 00:07:48;;;;;;;2.05;0.70;;;;;;;19.89;100.00;100202.16;7388985;19;20022;-56
2022/08/27 00:10:19;;;;;;;2.72;0.35;;;;;;;19.99;100.00;100197.69;7390721;19;20021;-56
2022/08/27 00:12:47;;;;;;;1.00;0.70;;;;;;;19.99;100.00;100189.22;7389253;19;20011;-56
2022/08/27 00:15:14;;;;;;;1.50;0.35;;;;;;;19.90;100.00;100181.88;7391013;19;20022;-56
2022/08/27 00:17:44;;;;;;;2.28;0.90;;;;;;;19.80;100.00;100188.41;7389057;19;20015;-56
2022/08/27 00:20:11;;;;;;;5.57;0.85;;;;;;;19.70;100.00;100184.41;7388890;19;20007;-57
2022/08/27 00:22:37;;;;;;;4.75;0.43;;;;;;;19.49;100.00;100187.69;7389072;19;20443;-57
2022/08/27 00:25:06;;;;;;;1.17;0.30;;;;;;;19.80;100.00;100177.09;7392470;19;20021;-56
2022/08/27 00:27:32;;;;;;;0.57;0.10;;;;;;;19.63;100.00;100188.59;7389434;19;20018;-56
2022/08/27 00:29:58;;;;;;;0.35;0.20;;;;;;;19.68;100.00;100182.13;7389784;19;20019;-57
2022/08/27 00:32:25;;;;;;;4.22;0.30;;;;;;;19.46;100.00;100188.78;7388454;19;20014;-56
2022/08/27 00:34:51;;;;;;;0.57;0.32;;;;;;;19.23;100.00;100181.75;7389374;19;20011;-56
2022/08/27 00:37:18;;;;;;;7.13;0.45;;;;;;;19.13;100.00;100177.75;7387979;19;20014;-56
2022/08/27 00:39:44;;;;;;;0.60;0.10;;;;;;;19.18;100.00;100176.94;7389734;19;20375;-56
2022/08/27 00:42:10;;;;;;;0.88;0.35;;;;;;;19.17;100.00;100172.59;7390274;19;20451;-56
2022/08/27 00:44:38;;;;;;;2.63;0.65;;;;;;;19.11;100.00;100171.88;7389715;19;20010;-57
2022/08/27 00:47:10;;;;;;;1.25;0.45;;;;;;;19.02;100.00;100171.44;7393346;19;20010;-56
2022/08/27 00:49:48;;;;;;;5.55;0.47;;;;;;;19.33;100.00;100177.31;7389521;19;20025;-57
2022/08/27 00:52:25;;;;;;;0.45;0.43;;;;;;;19.69;100.00;100166.69;7389182;19;20012;-56
2022/08/27 00:54:57;;;;;;;1.08;0.68;;;;;;;19.57;100.00;100171.72;7388551;19;20078;-56
2022/08/27 00:57:25;;;;;;;0.30;0.30;;;;;;;19.47;100.00;100176.16;7387412;19;20522;-56
2022/08/27 00:59:51;;;;;;;0.88;0.17;;;;;;;19.64;100.00;100176.75;7389198;19;20045;-56
2022/08/27 01:02:17;;;;;;;8.07;0.85;;;;;;;19.58;100.00;100175.28;7388106;19;20085;-56
2022/08/27 01:04:54;;;;;;;0.68;0.40;;;;;;;19.59;100.00;100174.00;7388478;19;20018;-56
2022/08/27 01:07:21;;;;;;;1.48;0.30;;;;;;;19.20;100.00;100182.84;7388951;19;20015;-56
2022/08/27 01:09:50;;;;;;;0.50;0.30;;;;;;;19.16;100.00;100185.19;7389158;19;20034;-56
2022/08/27 01:12:16;;;;;;;0.25;0.20;;;;;;;19.15;100.00;100191.34;7393052;19;20037;-57
2022/08/27 01:14:44;;;;;;;0.43;0.32;;;;;;;19.40;100.00;100187.28;7389192;19;20017;-56
2022/08/27 01:17:12;;;;;;;0.35;0.10;;;;;;;19.35;100.00;100188.09;7391569;19;20010;-56
2022/08/27 01:20:02;;;;;;;3.65;0.52;;;;;;;19.39;100.00;100188.56;7388104;19;20015;-57
2022/08/27 01:22:39;;;;;;;0.40;0.30;;;;;;;19.37;100.00;100186.28;7388687;19;20010;-56
2022/08/27 01:25:11;;;;;;;0.35;0.30;;;;;;;19.18;100.00;100185.41;7393278;19;20014;-56
2022/08/27 01:27:39;;;;;;;1.08;0.50;;;;;;;19.21;100.00;100184.34;7396935;19;20033;-56
2022/08/27 01:30:07;;;;;;;5.88;0.50;;;;;;;19.38;100.00;100182.16;7396327;19;20059;-56
2022/08/27 01:32:35;;;;;;;1.08;0.20;;;;;;;19.26;100.00;100182.75;7395640;19;20017;-56
2022/08/27 01:35:09;;;;;;;0.70;0.50;;;;;;;19.24;100.00;100180.47;7395943;19;20015;-57
2022/08/27 01:37:35;;;;;;;11.18;0.52;;;;;;;19.25;100.00;100178.44;7393041;19;20324;-56
2022/08/27 01:40:02;;;;;;;0.10;0.10;;;;;;;19.04;100.00;100174.50;7395382;19;20006;-56
2022/08/27 01:42:44;;;;;;;1.80;0.43;;;;;;;18.96;100.00;100179.97;7395799;19;20322;-57
2022/08/27 01:45:29;;;;;;;1.85;0.45;;;;;;;18.77;100.00;100179.84;7395213;19;20006;-56
2022/08/27 01:47:58;;;;;;;1.95;0.22;;;;;;;18.84;100.00;100184.16;7394997;19;20023;-56
2022/08/27 01:50:30;;;;;;;8.20;0.50;;;;;;;18.83;100.00;100182.63;7395779;19;20006;-56
2022/08/27 01:53:01;;;;;;;0.70;0.30;;;;;;;18.86;100.00;100175.94;7395428;19;20017;-56
2022/08/27 01:55:28;;;;;;;5.07;1.25;;;;;;;18.83;100.00;100182.63;7396587;19;20102;-57
2022/08/27 01:57:54;;;;;;;2.40;0.73;;;;;;;18.89;100.00;100172.06;7394134;19;20037;-57
2022/08/27 02:00:27;;;;;;;0.47;0.20;;;;;;;18.81;100.00;100174.69;7394572;19;20620;-56
2022/08/27 02:02:55;;;;;;;0.52;0.47;;;;;;;18.61;100.00;100177.13;7394415;19;20341;-56
2022/08/27 02:05:23;;;;;;;1.17;0.50;;;;;;;18.87;100.00;100171.81;7395095;19;20028;-56
2022/08/27 02:07:49;;;;;;;0.40;0.30;;;;;;;18.79;100.00;100170.84;7394278;19;20671;-57
2022/08/27 02:10:20;;;;;;;1.58;0.95;;;;;;;18.76;100.00;100175.50;7395075;19;20034;-56
2022/08/27 02:12:46;;;;;;;;;;;;;;;18.71;100.00;100181.19;7395244;19;20474;-56
2022/08/27 02:15:12;;;;;;;12.60;1.10;;;;;;;18.66;100.00;100177.13;7394255;19;19924;-57
2022/08/27 02:17:38;;;;;;;1.70;0.40;;;;;;;18.57;100.00;100180.25;7392065;19;20034;-57
2022/08/27 02:20:08;;;;;;;1.05;0.80;;;;;;;18.70;100.00;100171.19;7393939;19;20070;-56
2022/08/27 02:22:34;;;;;;;0.30;0.20;;;;;;;18.61;100.00;100177.13;7393784;19;20019;-57
2022/08/27 02:25:01;;;;;;;0.60;0.60;;;;;;;18.59;100.00;100169.22;7394501;19;20014;-56
2022/08/27 02:27:27;;;;;;;0.43;0.35;;;;;;;18.59;100.00;100174.06;7393784;19;20036;-57
2022/08/27 02:29:54;;;;;;;1.05;0.45;;;;;;;18.71;100.00;100176.28;7392553;19;20430;-56
2022/08/27 02:32:21;;;;;;;2.42;0.90;;;;;;;18.53;100.00;100179.00;7393321;19;20078;-57
2022/08/27 02:34:47;;;;;;;0.55;0.47;;;;;;;18.64;100.00;100176.09;7392257;19;20031;-56
2022/08/27 02:37:14;;;;;;;0.55;0.50;;;;;;;18.49;100.00;100168.00;7391128;19;20039;-57
2022/08/27 02:39:41;;;;;;;0.50;0.40;;;;;;;18.34;100.00;100175.25;7391744;19;20010;-56
2022/08/27 02:42:07;;;;;;;0.73;0.50;;;;;;;18.35;100.00;100165.47;7392665;19;20357;-50
2022/08/27 02:44:34;;;;;;;8.93;0.85;;;;;;;18.46;100.00;100160.56;7393446;19;20010;-50
2022/08/27 02:47:01;;;;;;;2.38;0.80;;;;;;;18.75;100.00;100170.38;7397450;19;20082;-50
2022/08/27 02:49:28;;;;;;;3.78;1.10;;;;;;;18.59;100.00;100165.63;7393099;19;20007;-50
2022/08/27 02:51:56;;;;;;;0.55;0.50;;;;;;;18.61;100.00;100160.22;7392020;19;20023;-50
2022/08/27 02:54:24;;;;;;;8.07;0.82;;;;;;;18.69;100.00;100161.94;7392642;19;20014;-50
2022/08/27 02:56:51;;;;;;;0.60;0.52;;;;;;;18.66;100.00;100167.88;7395043;19;20018;-50
2022/08/27 02:59:18;;;;;;;0.25;0.25;;;;;;;18.67;100.00;100170.16;7396222;19;20010;-50
2022/08/27 03:01:44;;;;;;;0.50;0.40;;;;;;;18.85;100.00;100175.16;7392292;19;20017;-50
2022/08/27 03:04:11;;;;;;;0.55;0.25;;;;;;;18.92;100.00;100173.84;7392557;19;20657;-50
2022/08/27 03:06:37;;;;;;;18.52;1.52;;;;;;;19.00;100.00;100179.66;7396232;19;20015;-50
2022/08/27 03:09:03;;;;;;;0.77;0.77;;;;;;;18.99;100.00;100176.09;7391322;19;20010;-50
2022/08/27 03:11:30;;;;;;;0.40;0.22;;;;;;;18.60;100.00;100178.44;7393513;19;20645;-50
2022/08/27 03:13:57;;;;;;;1.45;0.43;;;;;;;18.09;100.00;100177.94;7390968;19;20015;-50
2022/08/27 03:16:25;;;;;;;0.35;0.20;;;;;;;17.95;100.00;100167.72;7390815;19;20010;-50
2022/08/27 03:18:51;;;;;;;3.85;0.93;;;;;;;17.84;100.00;100172.66;7392163;19;20446;-50
2022/08/27 03:21:20;;;;;;;11.38;0.65;;;;;;;18.20;100.00;100182.75;7392241;19;20086;-50
2022/08/27 03:23:47;;;;;;;3.05;1.08;;;;;;;18.64;100.00;100176.09;7392177;19;20026;-50
2022/08/27 03:26:14;;;;;;;1.33;0.88;;;;;;;18.53;100.00;100176.19;7394388;19;20471;-50
2022/08/27 03:28:40;;;;;;;1.38;0.57;;;;;;;18.58;100.00;100176.13;7394935;19;20015;-50
2022/08/27 03:31:14;;;;;;;2.15;0.88;;;;;;;18.65;100.00;100169.16;7391477;19;20496;-50
2022/08/27 03:33:41;;;;;;;3.17;0.63;;;;;;;18.59;100.00;100174.06;7389817;19;20018;-50
2022/08/27 03:36:08;;;;;;;1.15;1.02;;;;;;;18.71;100.00;100169.91;7393534;19;20037;-50
2022/08/27 03:38:35;;;;;;;2.58;1.13;;;;;;;18.91;100.00;100166.66;7390807;19;20012;-50
2022/08/27 03:41:02;;;;;;;0.77;0.55;;;;;;;18.80;100.00;100172.38;7391217;19;20081;-50
2022/08/27 03:43:28;;;;;;;4.10;0.63;;;;;;;18.69;100.00;100173.22;7390433;19;20029;-50
2022/08/27 03:45:54;;;;;;;0.90;0.30;;;;;;;18.75;100.00;100173.19;7393282;19;20018;-50
2022/08/27 03:48:20;;;;;;;2.88;0.73;;;;;;;18.88;100.00;100173.34;7389214;19;20021;-50
2022/08/27 03:50:49;;;;;;;1.70;1.10;;;;;;;18.88;100.00;100179.00;7390981;19;20014;-50
2022/08/27 03:53:19;;;;;;;1.95;0.47;;;;;;;18.99;100.00;100175.31;7389721;19;20387;-50
2022/08/27 03:55:46;;;;;;;11.65;0.88;;;;;;;18.99;100.00;100173.28;7392342;19;20038;-50
2022/08/27 03:58:13;;;;;;;1.85;1.15;;;;;;;18.92;100.00;100168.19;7393029;19;20063;-51
2022/08/27 04:00:40;;;;;;;1.90;1.25;;;;;;;18.79;100.00;100170.84;7391522;19;20011;-50
2022/08/27 04:03:06;;;;;;;2.28;0.50;;;;;;;18.86;100.00;100173.88;7390317;19;20010;-50
2022/08/27 04:05:33;;;;;;;1.92;1.10;;;;;;;19.13;100.00;100179.81;7391657;19;20007;-50
2022/08/27 04:07:59;;;;;;;1.90;0.60;;;;;;;19.05;100.00;100171.16;7389856;19;20077;-51
2022/08/27 04:10:26;;;;;;;2.35;0.93;;;;;;;19.14;100.00;100176.47;7390839;19;20355;-50
2022/08/27 04:12:52;;;;;;;2.72;0.88;;;;;;;18.44;100.00;100173.63;7389483;19;20778;-50
2022/08/27 04:15:19;;;;;;;2.17;0.80;;;;;;;18.32;100.00;100178.56;7390509;19;20006;-50
2022/08/27 04:17:45;;;;;;;1.80;0.50;;;;;;;18.27;100.00;100182.19;7388953;19;20010;-50
2022/08/27 04:20:11;;;;;;;1.85;0.60;;;;;;;18.24;100.00;100171.19;7389482;19;20011;-50
2022/08/27 04:22:38;;;;;;;1.20;1.02;;;;;;;18.26;100.00;100180.66;7390301;19;20019;-50
2022/08/27 04:25:06;;;;;;;3.13;0.90;;;;;;;18.80;100.00;100175.97;7390993;19;20014;-50
2022/08/27 04:27:32;;;;;;;1.73;0.63;;;;;;;18.97;100.00;100181.50;7390192;19;20015;-50
2022/08/27 04:29:59;;;;;;;0.73;0.30;;;;;;;18.98;100.00;100174.56;7390070;19;20019;-50
2022/08/27 04:32:27;;;;;;;4.68;0.95;;;;;;;18.97;100.00;100170.22;7387876;19;20024;-50
2022/08/27 04:34:54;;;;;;;0.65;0.47;;;;;;;19.00;100.00;100169.16;7390029;19;20372;-50
2022/08/27 04:37:21;;;;;;;1.60;0.70;;;;;;;18.29;100.00;100173.22;7389250;19;20015;-50
2022/08/27 04:39:48;;;;;;;1.83;0.20;;;;;;;17.99;100.00;100176.69;7389116;19;20045;-50
2022/08/27 04:42:17;;;;;;;4.05;0.40;;;;;;;17.80;100.00;100167.28;7388882;19;20018;-50
2022/08/27 04:44:44;;;;;;;0.82;0.65;;;;;;;18.53;100.00;100164.88;7389652;19;20015;-50
2022/08/27 04:47:10;;;;;;;1.38;0.60;;;;;;;17.80;100.00;100161.63;7392639;19;20014;-50
2022/08/27 04:49:36;;;;;;;0.88;0.32;;;;;;;17.78;100.00;100169.84;7388721;19;20038;-50
2022/08/27 04:52:03;;;;;;;2.53;0.75;;;;;;;18.66;100.00;100162.25;7387308;19;20021;-50
2022/08/27 04:54:30;;;;;;;2.55;1.08;;;;;;;18.55;100.00;100168.72;7389095;19;20066;-51
2022/08/27 04:56:56;;;;;;;0.93;0.60;;;;;;;18.50;100.00;100161.06;7391203;19;20021;-50
2022/08/27 04:59:22;;;;;;;0.52;0.28;;;;;;;18.44;100.00;100159.53;7399559;19;20107;-51
2022/08/27 05:01:50;;;;;;;1.52;0.52;;;;;;;18.25;100.00;100167.84;7395648;19;20010;-50
2022/08/27 05:04:20;;;;;;;2.15;1.02;;;;;;;18.27;100.00;100165.28;7396747;19;20014;-50
2022/08/27 05:06:47;;;;;;;1.50;1.03;;;;;;;18.24;100.00;100171.19;7400355;19;20058;-50
2022/08/27 05:09:14;;;;;;;0.28;0.28;;;;;;;18.30;100.00;100169.13;7395903;19;20062;-50
2022/08/27 05:11:41;;;;;;;4.00;1.08;;;;;;;18.18;100.00;100166.34;7397834;19;20015;-50
2022/08/27 05:14:09;;;;;;;3.05;0.98;;;;;;;17.30;100.00;100175.09;7395786;19;20015;-50
2022/08/27 05:16:35;;;;;;;3.13;1.25;;;;;;;17.02;100.00;100169.47;7397968;19;20070;-50
2022/08/27 05:19:07;;;;;;;0.40;0.40;;;;;;;16.84;100.00;100174.84;7395446;19;20490;-50
2022/08/27 05:21:37;;;;;;;1.17;0.63;;;;;;;16.77;100.00;100178.16;7395487;19;20483;-50
2022/08/27 05:24:06;;;;;;;4.68;0.65;;;;;;;16.59;100.00;100177.38;7395784;19;20014;-50
2022/08/27 05:26:34;;;;;;;1.30;0.47;;;;;;;16.39;100.00;100177.59;7397653;19;20035;-50
2022/08/27 05:29:01;;;;;;;1.40;0.70;;;;;;;16.90;100.00;100182.00;7397498;19;20030;-50
2022/08/27 05:31:31;;;;;;;1.13;0.73;;;;;;;17.26;100.00;100180.22;7393150;19;20124;-49
2022/08/27 05:33:58;;;;;;;3.40;0.55;;;;;;;17.31;100.00;100182.22;7393919;19;20013;-50
2022/08/27 05:36:29;;;;;;;0.52;0.35;;;;;;;17.36;100.00;100181.47;7396151;19;20447;-50
2022/08/27 05:38:56;;;;;;;2.05;0.90;;;;;;;17.35;100.00;100180.69;7398693;19;20470;-49
2022/08/27 05:41:26;;;;;;;0.57;0.50;;;;;;;17.36;100.00;100182.25;7399388;19;20010;-50
2022/08/27 05:43:55;;;;;;;10.95;0.93;;;;;;;17.43;100.00;100180.94;7396311;19;20035;-50
2022/08/27 05:46:23;;;;;;;1.45;0.98;;;;;;;17.47;100.00;100184.25;7398453;19;20041;-49
2022/08/27 05:48:50;;;;;;;1.40;0.70;;;;;;;17.40;100.00;100188.38;7394955;19;20045;-50
2022/08/27 05:51:19;;;;;;;2.08;0.75;;;;;;;17.31;100.00;100187.88;7398285;19;20014;-50
2022/08/27 05:53:45;;;;;;;0.75;0.75;;;;;;;17.23;100.00;100192.47;7394619;19;20070;-50
2022/08/27 05:56:23;;;;;;;4.30;0.40;;;;;;;17.21;100.00;100189.41;7397156;19;20007;-49
2022/08/27 06:01:41;;;;;;;0.93;0.88;;;;;;;17.13;100.00;100194.03;7395999;19;20037;-50
2022/08/27 06:04:08;;;;;;;1.55;0.55;;;;;;;17.12;100.00;100204.53;7396961;19;20074;-50
2022/08/27 06:06:37;;;;;;;21.38;1.25;;;;;;;17.16;100.00;100204.25;7398286;19;20007;-49
2022/08/27 06:09:04;;;;;;;3.25;0.93;;;;;;;17.13;100.00;100205.28;7395248;19;20010;-50
2022/08/27 06:11:30;;;;;;;9.52;1.27;;;;;;;17.16;100.00;100204.25;7397071;19;20052;-50
2022/08/27 06:13:57;;;;;;;1.27;0.90;;;;;;;17.23;100.00;100204.53;7397843;19;20010;-49
2022/08/27 06:16:23;;;;;;;4.28;0.90;;;;;;;17.27;100.00;100209.88;7395617;19;20014;-50
2022/08/27 06:18:49;;;;;;;0.60;0.55;;;;;;;17.13;100.00;100206.03;7395860;19;20011;-50
2022/08/27 06:21:18;;;;;;;1.70;0.50;;;;;;;17.15;100.00;100208.38;7393163;19;20381;-50
2022/08/27 06:23:45;;;;;;;1.40;1.30;;;;;;;17.36;100.00;100206.81;7393883;19;20022;-50
2022/08/27 06:26:16;;;;;;;1.73;1.02;;;;;;;17.74;100.00;100203.16;7396368;19;20356;-49
2022/08/27 06:28:43;;;;;;;1.27;0.95;;;;;;;17.74;100.00;100208.78;7396220;19;20014;-49
2022/08/27 06:31:16;;;;;;;3.13;1.98;;;;;;;17.56;100.00;100209.38;7393828;19;20021;-50
2022/08/27 06:33:43;;;;;;;4.45;2.05;;;;;;;17.80;100.00;100217.25;7392277;19;20037;-50
2022/08/27 06:36:13;;;;;;;4.18;2.25;;;;;;;17.57;100.00;100215.75;7393731;19;20011;-50
2022/08/27 06:38:41;;;;;;;3.65;1.88;;;;;;;17.01;100.00;100215.00;7393376;19;20561;-50
2022/08/27 06:41:10;;;;;;;5.20;1.98;;;;;;;16.96;100.00;100213.72;7393326;19;20364;-49
2022/08/27 06:43:39;;;;;;;8.55;2.40;;;;;;;17.01;100.00;100226.25;7393391;19;20409;-50
2022/08/27 06:46:09;;;;;;;9.30;2.40;;;;;;;17.06;100.00;100222.69;7393378;19;20010;-50
2022/08/27 06:48:35;;;;;;;2.65;1.85;;;;;;;17.11;100.00;100225.50;7391497;19;20014;-50
2022/08/27 06:51:11;;;;;;;4.82;1.77;;;;;;;17.21;100.00;100223.19;7392499;19;20116;-50
2022/08/27 06:53:38;;;;;;;3.60;1.60;;;;;;;17.25;100.00;100223.69;7391428;19;20015;-49
2022/08/27 06:56:04;;;;;;;1.35;1.13;;;;;;;17.40;100.00;100218.56;7394127;19;20467;-50
2022/08/27 06:58:32;;;;;;;8.98;2.08;;;;;;;17.52;100.00;100225.00;7394644;19;20018;-50
2022/08/27 07:00:58;;;;;;;5.95;1.67;;;;;;;17.60;100.00;100221.13;7392956;19;20026;-50
2022/08/27 07:03:24;;;;;;;3.25;0.88;;;;;;;17.04;100.00;100231.66;7391830;19;20041;-50
2022/08/27 07:05:50;;;;;;;5.40;1.05;;;;;;;16.59;100.00;100232.84;7394578;19;20010;-50
2022/08/27 07:08:16;;;;;;;2.00;1.42;;;;;;;18.32;100.00;100232.13;7391827;19;20010;-49
2022/08/27 07:10:42;;;;;;;3.20;0.98;;;;;;;18.16;100.00;100235.81;7392593;19;20919;-49
2022/08/27 07:13:08;;;;;;;9.98;2.78;;;;;;;18.34;100.00;100240.88;7392570;19;20015;-50
2022/08/27 07:15:38;;;;;;;7.38;2.50;;;;;;;18.82;100.00;100243.16;7393748;19;20040;-50
2022/08/27 07:18:04;;;;;;;7.05;2.35;;;;;;;19.26;100.00;100245.66;7390272;19;20020;-50
2022/08/27 07:20:31;;;;;;;4.32;1.58;;;;;;;19.60;100.00;100246.91;7392162;19;20475;-50
2022/08/27 07:22:58;;;;;;;5.28;1.90;;;;;;;19.75;100.00;100254.25;7389513;19;20006;-50
2022/08/27 07:25:25;;;;;;;2.80;1.33;;;;;;;20.00;100.00;100252.94;7395255;19;20011;-50
2022/08/27 07:27:51;;;;;;;1.98;0.75;;;;;;;20.13;100.00;100255.88;7392824;19;20074;-50
2022/08/27 07:30:18;;;;;;;4.25;1.48;;;;;;;20.30;100.00;100253.63;7394317;19;20017;-50
2022/08/27 07:32:44;;;;;;;2.50;1.73;;;;;;;20.46;100.00;100252.66;7394381;19;20006;-50
2022/08/27 07:35:12;;;;;;;2.65;1.38;;;;;;;20.69;100.00;100256.72;7395356;19;20024;-50
2022/08/27 07:37:40;;;;;;;2.78;1.45;;;;;;;20.93;100.00;100259.44;7389931;19;20115;-50
2022/08/27 07:40:10;;;;;;;1.30;0.90;;;;;;;21.08;100.00;100254.09;7391242;19;20015;-50
2022/08/27 07:45:22;;;;;;;4.53;1.35;;;;;;;20.87;100.00;100258.00;7390760;19;20349;-50
2022/08/27 07:47:49;;;;;;;2.53;1.17;;;;;;;20.79;100.00;100260.66;7393573;19;20006;-50
2022/08/27 07:50:15;;;;;;;2.22;0.90;;;;;;;20.76;100.00;100266.66;7395170;19;20025;-51
2022/08/27 07:52:42;;;;;;;2.90;0.88;;;;;;;20.51;100.00;100263.13;7390817;19;20024;-51
2022/08/27 07:55:10;;;;;;;1.58;0.70;;;;;;;20.45;100.00;100265.25;7390423;19;20408;-50
2022/08/27 07:57:37;;;;;;;3.20;0.77;;;;;;;20.62;100.00;100268.63;7389960;19;20459;-51
2022/08/27 08:00:08;;;;;;;2.72;1.27;;;;;;;20.76;100.00;100261.75;7390625;19;20034;-50
2022/08/27 08:02:40;;;;;;;2.05;0.93;;;;;;;20.90;100.00;100260.50;7387199;19;20355;-51
2022/08/27 08:05:08;;;;;;;3.75;0.88;;;;;;;20.97;100.00;100265.56;7388912;19;20007;-50
2022/08/27 08:07:37;;;;;;;7.65;1.33;;;;;;;21.13;100.00;100270.25;7390833;19;20031;-51
2022/08/27 08:10:08;;;;;;;3.42;1.20;;;;;;;21.17;100.00;100264.25;7389606;19;20375;-51
2022/08/27 08:12:36;;;;;;;1.42;0.52;;;;;;;21.08;100.00;100271.09;7394945;19;20083;-51
2022/08/27 08:15:06;;;;;;;1.30;0.88;;;;;;;21.17;100.00;100266.31;7390092;19;20056;-51
2022/08/27 08:17:33;;;;;;;2.63;0.88;;;;;;;21.32;100.00;100270.19;7388279;19;20038;-50
2022/08/27 08:19:59;;;;;;;1.58;0.70;;;;;;;21.44;100.00;100273.63;7390053;19;20399;-50
2022/08/27 08:22:26;;;;;;;2.10;0.70;;;;;;;21.44;100.00;100276.44;7389831;19;20011;-51
2022/08/27 08:24:53;;;;;;;3.58;1.50;;;;;;;21.47;100.00;100284.63;7391783;19;20014;-51
2022/08/27 08:27:19;;;;;;;1.63;0.70;;;;;;;21.64;100.00;100275.81;7394183;19;20465;-51
2022/08/27 08:29:47;;;;;;;2.05;1.45;;;;;;;21.72;100.00;100285.22;7389840;19;20014;-51
2022/08/27 08:32:14;;;;;;;7.75;0.40;;;;;;;21.75;100.00;100284.13;7388945;19;20070;-51
2022/08/27 08:34:40;;;;;;;2.72;0.68;;;;;;;21.87;100.00;100283.41;7390649;19;20007;-51
2022/08/27 08:37:06;;;;;;;2.95;0.80;;;;;;;22.11;100.00;100279.59;7392796;19;20024;-51
2022/08/27 08:39:35;;;;;;;2.20;0.68;;;;;;;22.33;100.00;100284.84;7390724;19;20367;-51
2022/08/27 08:42:04;;;;;;;1.45;0.88;;;;;;;22.63;100.00;100278.06;7390500;19;20405;-51
2022/08/27 08:44:48;;;;;;;1.67;0.70;;;;;;;22.81;100.00;100277.13;7390633;19;20010;-51
2022/08/27 08:47:18;;;;;;;5.20;1.08;;;;;;;22.90;100.00;100285.19;7388165;19;20020;-51
2022/08/27 08:50:15;;;;;;;3.13;0.77;;;;;;;23.08;100.00;100285.03;7389153;19;20081;-52
2022/08/27 08:52:44;;;;;;;1.50;0.73;;;;;;;23.19;100.00;100281.16;7391484;19;20014;-51
2022/08/27 08:55:32;;;;;;;2.30;1.17;;;;;;;23.29;100.00;100277.28;7392535;19;20025;-51
2022/08/27 08:58:16;;;;;;;4.20;0.85;;;;;;;23.45;100.00;100285.97;7389344;19;20010;-51
2022/08/27 09:00:46;;;;;;;6.85;0.98;;;;;;;23.68;100.00;100290.56;7388653;19;20010;-52
2022/08/27 09:03:14;;;;;;;1.33;0.82;;;;;;;22.95;100.00;100292.84;7388080;19;20487;-51
2022/08/27 09:05:47;;;;;;;0.60;0.20;;;;;;;23.04;100.00;100281.75;7390224;19;20031;-53
2022/08/27 09:08:30;;;;;;;11.00;0.85;;;;;;;24.25;100.00;100288.53;7389056;19;20010;-53
2022/08/27 09:11:34;;;;;;;9.68;1.27;;;;;;;24.06;100.00;100291.63;7390806;19;20007;-53
2022/08/27 09:14:13;;;;;;;2.95;0.95;;;;;;;24.24;100.00;100289.06;7386497;19;20463;-51
2022/08/27 09:16:39;;;;;;;1.33;0.40;;;;;;;23.82;100.00;100283.44;7391760;19;20467;-51
2022/08/27 09:19:05;;;;;;;2.65;0.73;;;;;;;23.74;100.00;100276.94;7388896;19;20011;-51
2022/08/27 09:21:48;;;;;;;4.60;1.33;;;;;;;24.10;100.00;100277.78;7387523;19;20467;-50
2022/08/27 09:24:30;;;;;;;1.77;0.60;;;;;;;24.63;100.00;100283.00;7388004;19;20015;-51
2022/08/27 09:26:56;;;;;;;9.50;0.70;;;;;;;24.86;100.00;100280.28;7391941;19;20018;-51
2022/08/27 09:29:26;;;;;;;4.57;0.73;;;;;;;25.05;100.00;100272.91;7392388;19;20021;-51
2022/08/27 09:32:06;;;;;;;2.92;1.10;;;;;;;24.99;100.00;100283.75;7387376;19;20348;-51
2022/08/27 09:34:38;;;;;;;2.67;0.68;;;;;;;25.14;100.00;100295.19;7387212;19;20371;-51
2022/08/27 09:37:08;;;;;;;1.63;0.68;;;;;;;25.12;100.00;100283.56;7390513;19;20018;-51
2022/08/27 09:39:45;;;;;;;2.78;0.75;;;;;;;25.42;100.00;100288.59;7386628;19;20042;-51
2022/08/27 09:42:37;;;;;;;1.67;0.73;;;;;;;25.09;100.00;100290.41;7388137;19;20078;-51
2022/08/27 09:45:10;;;;;;;2.55;0.85;;;;;;;24.99;100.00;100289.44;7389180;19;20333;-51
2022/08/27 09:48:02;;;;;;;3.15;0.80;;;;;;;25.33;100.00;100284.19;7392726;19;20019;-51
2022/08/27 09:50:46;;;;;;;4.22;0.68;;;;;;;25.33;100.00;100289.88;7393216;19;20066;-51
2022/08/27 09:53:30;;;;;;;10.45;0.60;;;;;;;25.69;100.00;100281.19;7394019;19;20014;-51
2022/08/27 09:55:59;;;;;;;9.05;1.23;;;;;;;25.56;100.00;100287.84;7396488;19;20031;-50
2022/08/27 09:58:32;;;;;;;2.17;0.52;;;;;;;25.64;100.00;100289.94;7396476;19;20017;-51
2022/08/27 10:01:05;;;;;;;3.35;1.17;;;;;;;25.54;100.00;100281.94;7395464;19;20006;-51
2022/08/27 10:03:31;;;;;;;4.80;1.08;;;;;;;25.55;100.00;100286.31;7395031;19;20419;-51
2022/08/27 10:05:59;;;;;;;3.22;0.43;;;;;;;25.08;100.00;100291.72;7396235;19;20362;-51
2022/08/27 10:08:34;;;;;;;1.33;0.38;;;;;;;24.91;100.00;100280.09;7393597;19;20084;-51
2022/08/27 10:11:08;;;;;;;4.03;0.40;;;;;;;24.64;100.00;100281.69;7395150;19;20022;-51
2022/08/27 10:13:49;;;;;;;4.68;0.57;;;;;;;24.40;100.00;100277.22;7394157;19;20015;-51
2022/08/27 10:16:53;;;;;;;3.90;0.90;;;;;;;24.30;100.00;100281.16;7396068;19;20015;-51
2022/08/27 10:19:35;;;;;;;1.83;0.73;;;;;;;24.20;100.00;100280.13;7393627;19;20011;-51
2022/08/27 10:22:04;;;;;;;4.15;0.50;;;;;;;24.51;100.00;100270.44;7394143;19;20018;-52
2022/08/27 10:24:36;;;;;;;2.58;0.65;;;;;;;25.02;100.00;100271.19;7393956;19;20011;-51
2022/08/27 10:27:18;;;;;;;3.25;0.98;;;;;;;25.35;100.00;100275.06;7396996;19;20032;-52
2022/08/27 10:29:50;;;;;;;1.60;0.30;;;;;;;25.11;100.00;100267.81;7393711;19;20038;-51
2022/08/27 10:32:43;;;;;;;1.92;0.30;;;;;;;25.13;100.00;100270.06;7393575;19;20014;-51
2022/08/27 10:35:21;;;;;;;2.50;0.77;;;;;;;25.72;100.00;100259.31;7393569;19;20018;-52
2022/08/27 10:38:07;;;;;;;1.17;0.63;;;;;;;26.12;100.00;100254.50;7392273;19;20459;-51
2022/08/27 10:41:02;;;;;;;2.75;1.08;;;;;;;26.43;100.00;100250.22;7393769;19;20003;-51
2022/08/27 10:43:58;;;;;;;2.00;0.90;;;;;;;26.61;100.00;100249.03;7392625;19;20010;-52
2022/08/27 10:46:30;;;;;;;4.18;0.90;;;;;;;26.58;100.00;100250.16;7396161;19;20034;-51
2022/08/27 10:49:10;;;;;;;2.15;0.45;;;;;;;26.99;100.00;100255.31;7392636;19;20007;-51
2022/08/27 10:51:51;;;;;;;12.80;1.17;;;;;;;27.62;100.00;100252.97;7393096;19;20332;-51
2022/08/27 10:54:19;;;;;;;8.45;0.73;;;;;;;27.54;100.00;100257.25;7393110;19;20450;-51
2022/08/27 10:56:53;;;;;;;1.30;0.98;;;;;;;27.42;100.00;100256.19;7395887;19;20006;-51
2022/08/27 10:59:31;;;;;;;1.55;0.57;;;;;;;27.50;100.00;100246.22;7396805;19;20416;-50
2022/08/27 11:02:23;;;;;;;1.05;0.32;;;;;;;27.30;100.00;100252.25;7393147;19;20811;-50
2022/08/27 11:04:56;;;;;;;1.08;0.90;;;;;;;27.40;100.00;100247.44;7390525;19;20098;-51
2022/08/27 11:07:27;;;;;;;1.23;0.35;;;;;;;27.18;100.00;100237.66;7392687;19;20350;-51
2022/08/27 11:10:31;;;;;;;1.83;0.40;;;;;;;27.51;100.00;100229.78;7392781;19;20018;-51
2022/08/27 11:13:04;;;;;;;0.88;0.45;;;;;;;27.55;100.00;100235.88;7390416;19;20010;-51
2022/08/27 11:15:34;;;;;;;4.05;0.65;;;;;;;28.16;100.00;100239.69;7393540;19;20046;-51
2022/08/27 11:18:09;;;;;;;3.85;0.80;;;;;;;28.19;95.86;100235.66;7391649;19;20015;-51
2022/08/27 11:20:52;;;;;;;1.30;0.50;;;;;;;28.32;97.15;100237.41;7393472;19;20098;-51
2022/08/27 11:23:26;;;;;;;2.55;0.40;;;;;;;28.58;98.85;100236.75;7390178;19;20010;-51
2022/08/27 11:25:57;;;;;;;4.35;0.47;;;;;;;28.56;100.00;100232.91;7393384;19;20015;-51
2022/08/27 11:28:55;;;;;;;2.92;0.43;;;;;;;29.20;97.93;100241.03;7393908;19;20007;-51
2022/08/27 11:31:35;;;;;;;3.30;0.50;;;;;;;29.14;94.52;100234.78;7391308;19;20018;-51
2022/08/27 11:34:42;;;;;;;7.68;0.30;;;;;;;29.57;93.36;100241.78;7391126;19;20015;-51
2022/08/27 11:37:37;;;;;;;0.65;0.20;;;;;;;29.18;87.99;100238.00;7394908;19;20463;-51